createdAt,value
2023-03-03T00:03:59.675Z,30.70
2023-03-03T00:06:27.035Z,25.37
2023-03-03T00:08:53.750Z,31.40
2023-03-03T00:11:20.273Z,27.57
2023-03-03T00:13:52.795Z,32.40
2023-03-03T00:19:01.329Z,29.57
2023-03-03T00:21:32.213Z,29.47
2023-03-03T00:24:16.341Z,25.90
2023-03-03T00:26:46.948Z,26.43
2023-03-03T00:29:27.791Z,28.77
2023-03-03T00:31:55.266Z,29.90
2023-03-03T00:34:27.842Z,32.20
2023-03-03T00:36:56.955Z,26.37
2023-03-03T00:39:31.156Z,30.40
2023-03-03T00:42:00.687Z,30.30
2023-03-03T00:44:43.857Z,28.53
2023-03-03T00:50:11.484Z,30.50
2023-03-03T00:52:40.632Z,28.50
2023-03-03T00:55:08.577Z,30.23
2023-03-03T00:57:36.418Z,25.93
2023-03-03T01:00:04.094Z,34.53
2023-03-03T01:02:31.237Z,28.73
2023-03-03T01:04:57.862Z,33.37
2023-03-03T01:07:24.525Z,28.07
2023-03-03T01:09:51.115Z,29.27
2023-03-03T01:12:17.781Z,30.10
2023-03-03T01:14:45.500Z,32.03
2023-03-03T01:19:43.822Z,28.03
2023-03-03T01:22:10.344Z,29.10
2023-03-03T01:27:08.762Z,29.60
2023-03-03T01:29:35.257Z,27.23
2023-03-03T01:32:01.867Z,31.93
2023-03-03T01:34:28.420Z,31.13
2023-03-03T01:36:54.992Z,28.23
2023-03-03T01:39:21.562Z,29.57
2023-03-03T01:44:19.811Z,28.77
2023-03-03T01:46:55.119Z,30.33
2023-03-03T01:49:40.197Z,27.00
2023-03-03T01:52:35.075Z,28.20
2023-03-03T01:55:10.272Z,26.90
2023-03-03T02:02:57.524Z,32.27
2023-03-03T02:05:24.730Z,27.70
2023-03-03T02:07:52.233Z,31.60
2023-03-03T02:10:21.361Z,33.87
2023-03-03T02:12:56.046Z,31.53
2023-03-03T02:15:32.471Z,31.40
2023-03-03T02:18:01.984Z,30.00
2023-03-03T02:23:27.309Z,31.57
2023-03-03T02:25:58.812Z,33.50
2023-03-03T02:28:31.742Z,32.17
2023-03-03T02:33:31.282Z,29.47
2023-03-03T02:35:57.873Z,29.33
2023-03-03T02:38:47.605Z,31.57
2023-03-03T02:41:35.998Z,29.30
2023-03-03T02:44:05.733Z,28.83
2023-03-03T02:46:35.344Z,33.03
2023-03-03T02:49:02.740Z,28.57
2023-03-03T02:51:29.809Z,29.27
2023-03-03T02:53:56.407Z,29.33
2023-03-03T02:56:23.156Z,29.37
2023-03-03T02:58:49.957Z,30.00
2023-03-03T03:01:16.680Z,33.17
2023-03-03T03:03:43.330Z,32.30
2023-03-03T03:06:09.859Z,29.17
2023-03-03T03:08:36.450Z,30.67
2023-03-03T03:11:05.922Z,31.00
2023-03-03T03:13:33.100Z,30.43
2023-03-03T03:15:59.909Z,28.83
2023-03-03T03:18:27.572Z,33.00
2023-03-03T03:20:54.312Z,30.33
2023-03-03T03:23:23.775Z,31.33
2023-03-03T03:25:50.356Z,28.73
2023-03-03T03:28:17.798Z,27.73
2023-03-03T03:30:45.883Z,31.03
2023-03-03T03:33:12.590Z,28.70
2023-03-03T03:35:40.653Z,28.77
2023-03-03T03:38:07.181Z,25.47
2023-03-03T03:43:06.093Z,33.37
2023-03-03T03:45:32.858Z,28.57
2023-03-03T03:47:59.705Z,33.23
2023-03-03T03:50:26.293Z,26.60
2023-03-03T03:52:52.844Z,27.73
2023-03-03T03:55:19.392Z,36.57
2023-03-03T03:57:46.010Z,33.60
2023-03-03T04:00:12.918Z,27.83
2023-03-03T04:02:39.573Z,30.50
2023-03-03T04:05:07.441Z,29.73
2023-03-03T04:07:34.249Z,27.77
2023-03-03T04:10:00.883Z,29.87
2023-03-03T04:12:27.504Z,27.47
2023-03-03T04:14:54.012Z,27.37
2023-03-03T04:17:24.563Z,26.37
2023-03-03T04:19:53.362Z,27.40
2023-03-03T04:22:20.265Z,29.37
2023-03-03T04:24:48.750Z,30.63
2023-03-03T04:27:15.700Z,29.60
2023-03-03T04:29:42.619Z,30.53
2023-03-03T04:37:23.639Z,32.13
2023-03-03T04:39:50.239Z,30.73
2023-03-03T04:42:16.816Z,31.27
2023-03-03T04:44:43.568Z,29.90
2023-03-03T04:47:10.157Z,31.87
2023-03-03T04:49:37.205Z,31.23
2023-03-03T04:52:04.008Z,31.57
2023-03-03T04:54:31.203Z,35.37
2023-03-03T04:56:58.652Z,28.63
2023-03-03T05:02:02.559Z,35.20
2023-03-03T05:04:29.060Z,29.27
2023-03-03T05:06:57.574Z,30.20
2023-03-03T05:09:24.117Z,30.93
2023-03-03T05:11:50.732Z,30.93
2023-03-03T05:16:48.559Z,30.83
2023-03-03T05:19:15.196Z,33.17
2023-03-03T05:21:42.896Z,35.17
2023-03-03T05:26:42.637Z,34.37
2023-03-03T05:29:09.656Z,29.10
2023-03-03T05:31:36.923Z,31.30
2023-03-03T05:34:03.825Z,31.37
2023-03-03T05:36:30.486Z,36.73
2023-03-03T05:38:57.023Z,35.90
2023-03-03T05:41:23.858Z,32.73
2023-03-03T05:46:24.320Z,31.97
2023-03-03T05:48:50.871Z,34.60
2023-03-03T05:51:17.430Z,28.93
2023-03-03T05:53:44.025Z,32.10
2023-03-03T05:56:10.552Z,34.57
2023-03-03T05:58:37.111Z,32.53
2023-03-03T06:01:03.770Z,30.77
2023-03-03T06:03:30.414Z,34.53
2023-03-03T06:05:57.031Z,28.43
2023-03-03T06:08:23.662Z,33.67
2023-03-03T06:10:50.220Z,31.33
2023-03-03T06:13:16.751Z,34.03
2023-03-03T06:18:21.572Z,35.33
2023-03-03T06:20:52.341Z,32.00
2023-03-03T06:25:53.066Z,38.33
2023-03-03T06:28:19.964Z,35.87
2023-03-03T06:30:46.572Z,36.17
2023-03-03T06:33:13.065Z,32.80
2023-03-03T06:35:39.721Z,36.90
2023-03-03T06:38:06.279Z,43.13
2023-03-03T06:40:32.992Z,39.60
2023-03-03T06:42:59.525Z,34.43
2023-03-03T06:45:26.103Z,37.87
2023-03-03T06:47:52.712Z,38.30
2023-03-03T06:50:20.716Z,35.47
2023-03-03T06:52:47.344Z,37.67
2023-03-03T06:55:21.488Z,35.63
2023-03-03T06:57:48.257Z,34.47
2023-03-03T07:00:16.896Z,36.30
2023-03-03T07:02:43.661Z,36.50
2023-03-03T07:07:52.457Z,34.77
2023-03-03T07:10:27.467Z,35.23
2023-03-03T07:12:56.871Z,39.47
2023-03-03T07:15:34.621Z,43.93
2023-03-03T07:18:02.610Z,37.13
2023-03-03T07:20:39.778Z,35.47
2023-03-03T07:23:21.314Z,38.53
2023-03-03T07:25:48.691Z,40.70
2023-03-03T07:28:27.202Z,36.67
2023-03-03T07:30:54.830Z,37.90
2023-03-03T07:33:27.099Z,35.17
2023-03-03T07:35:59.454Z,33.60
2023-03-03T07:38:42.564Z,37.63
2023-03-03T07:41:20.902Z,35.67
2023-03-03T07:43:55.194Z,39.70
2023-03-03T07:47:00.791Z,40.60
2023-03-03T07:49:36.135Z,37.77
2023-03-03T07:52:17.555Z,38.30
2023-03-03T07:54:46.542Z,32.53
2023-03-03T07:57:22.677Z,41.53
2023-03-03T07:59:52.424Z,31.97
2023-03-03T08:02:39.803Z,37.80
2023-03-03T08:05:41.877Z,40.67
2023-03-03T08:08:29.456Z,36.87
2023-03-03T08:10:58.186Z,36.60
2023-03-03T08:16:09.547Z,36.43
2023-03-03T08:18:40.043Z,34.17
2023-03-03T08:21:13.068Z,37.70
2023-03-03T08:23:39.920Z,35.40
2023-03-03T08:26:07.186Z,38.83
2023-03-03T08:28:33.860Z,39.23
2023-03-03T08:31:15.468Z,34.30
2023-03-03T08:33:47.388Z,32.20
2023-03-03T08:36:14.504Z,34.47
2023-03-03T08:38:41.295Z,35.77
2023-03-03T08:41:08.033Z,38.53
2023-03-03T08:43:34.794Z,35.40
2023-03-03T08:46:05.417Z,37.50
2023-03-03T08:48:33.209Z,33.80
2023-03-03T08:51:00.207Z,32.20
2023-03-03T08:56:02.239Z,38.03
2023-03-03T08:58:35.199Z,33.00
2023-03-03T09:01:02.967Z,35.93
2023-03-03T09:03:30.060Z,34.40
2023-03-03T09:05:56.734Z,33.63
2023-03-03T09:08:23.275Z,30.07
2023-03-03T09:10:49.805Z,29.77
2023-03-03T09:13:19.586Z,29.37
2023-03-03T09:15:47.128Z,32.90
2023-03-03T09:18:24.988Z,32.77
2023-03-03T09:20:54.832Z,34.47
2023-03-03T09:23:31.207Z,34.73
2023-03-03T09:26:11.653Z,31.53
2023-03-03T09:28:38.598Z,30.57
2023-03-03T09:31:22.162Z,36.97
2023-03-03T09:33:55.165Z,35.30
2023-03-03T09:36:26.303Z,33.33
2023-03-03T09:38:55.895Z,36.43
2023-03-03T09:41:28.653Z,35.97
2023-03-03T09:44:07.112Z,37.87
2023-03-03T09:46:47.112Z,37.27
2023-03-03T09:49:31.280Z,36.90
2023-03-03T09:52:16.302Z,35.37
2023-03-03T09:54:55.802Z,33.20
2023-03-03T09:58:10.042Z,35.07
2023-03-03T10:00:59.237Z,33.57
2023-03-03T10:03:46.765Z,37.07
2023-03-03T10:06:22.617Z,32.10
2023-03-03T10:09:29.526Z,36.47
2023-03-03T10:12:09.890Z,36.17
2023-03-03T10:15:12.926Z,31.07
2023-03-03T10:18:08.917Z,35.50
2023-03-03T10:23:37.802Z,32.77
2023-03-03T10:26:26.880Z,35.60
2023-03-03T10:29:10.426Z,30.70
2023-03-03T10:32:03.287Z,33.17
2023-03-03T10:34:37.694Z,29.13
2023-03-03T10:37:15.126Z,32.37
2023-03-03T10:40:10.996Z,34.07
2023-03-03T10:42:49.909Z,32.90
2023-03-03T10:45:53.756Z,29.97
2023-03-03T10:48:35.317Z,29.10
2023-03-03T10:51:08.757Z,27.03
2023-03-03T10:53:51.454Z,28.97
2023-03-03T10:56:52.939Z,29.93
2023-03-03T10:59:31.901Z,31.93
2023-03-03T11:02:03.186Z,32.20
2023-03-03T11:04:32.617Z,29.23
2023-03-03T11:07:19.658Z,27.40
2023-03-03T11:10:00.891Z,30.60
2023-03-03T11:12:37.892Z,25.23
2023-03-03T11:18:15.173Z,27.37
2023-03-03T11:20:59.985Z,25.87
2023-03-03T11:23:50.100Z,26.27
2023-03-03T11:26:31.859Z,25.87
2023-03-03T11:29:21.792Z,30.37
2023-03-03T11:32:09.157Z,25.87
2023-03-03T11:34:55.613Z,24.93
2023-03-03T11:37:25.108Z,25.33
2023-03-03T11:39:55.749Z,23.60
2023-03-03T11:42:41.177Z,26.47
2023-03-03T11:45:19.992Z,24.73
2023-03-03T11:48:06.125Z,27.70
2023-03-03T11:51:01.887Z,27.77
2023-03-03T11:53:43.708Z,23.40
2023-03-03T11:56:27.762Z,25.07
2023-03-03T11:58:58.381Z,25.47
2023-03-03T12:01:37.004Z,26.40
2023-03-03T12:04:10.322Z,26.30
2023-03-03T12:06:47.919Z,27.23
2023-03-03T12:09:31.817Z,24.40
2023-03-03T12:12:16.522Z,24.27
2023-03-03T12:15:02.468Z,25.03
2023-03-03T12:20:31.138Z,20.27
2023-03-03T12:23:23.785Z,23.73
2023-03-03T12:26:17.566Z,51.70
2023-03-03T12:35:18.349Z,20.23
2023-03-03T12:40:34.814Z,24.63
2023-03-03T12:43:30.960Z,19.77
2023-03-03T12:46:06.250Z,19.37
2023-03-03T12:48:41.849Z,20.17
2023-03-03T12:51:16.603Z,21.10
2023-03-03T12:54:16.560Z,20.57
2023-03-03T12:57:09.559Z,26.87
2023-03-03T13:00:13.815Z,20.27
2023-03-03T13:02:56.879Z,21.43
2023-03-03T13:05:35.330Z,18.33
2023-03-03T13:08:33.572Z,24.20
2023-03-03T13:14:04.688Z,28.27
2023-03-03T13:19:26.560Z,22.17
2023-03-03T13:22:08.708Z,19.47
2023-03-03T13:25:06.112Z,19.77
2023-03-03T13:27:44.048Z,24.30
2023-03-03T13:30:28.135Z,21.00
2023-03-03T13:33:15.052Z,21.37
2023-03-03T13:35:55.604Z,19.83
2023-03-03T13:38:36.939Z,22.00
2023-03-03T13:41:15.726Z,20.23
2023-03-03T13:44:00.740Z,19.77
2023-03-03T13:46:50.391Z,20.47
2023-03-03T13:49:35.027Z,22.47
2023-03-03T13:55:03.515Z,20.40
2023-03-03T14:00:22.931Z,22.00
2023-03-03T14:03:39.525Z,25.33
2023-03-03T14:06:14.878Z,26.07
2023-03-03T14:08:44.500Z,21.27
2023-03-03T14:14:15.385Z,25.80
2023-03-03T14:16:47.357Z,27.50
2023-03-03T14:19:51.986Z,25.43
2023-03-03T14:22:53.614Z,22.67
2023-03-03T14:25:20.536Z,27.33
2023-03-03T14:27:47.182Z,22.70
2023-03-03T14:30:25.362Z,21.97
2023-03-03T14:33:10.695Z,24.73
2023-03-03T14:35:44.050Z,23.97
2023-03-03T14:38:14.912Z,24.47
2023-03-03T14:40:45.609Z,22.43
2023-03-03T14:43:26.080Z,21.57
2023-03-03T14:45:54.512Z,22.83
2023-03-03T14:48:30.456Z,29.13
2023-03-03T14:51:25.334Z,21.87
2023-03-03T14:53:52.746Z,23.53
2023-03-03T14:56:26.700Z,21.67
2023-03-03T14:58:55.691Z,23.47
2023-03-03T15:01:34.257Z,22.20
2023-03-03T15:04:10.712Z,23.60
2023-03-03T15:09:48.815Z,26.27
2023-03-03T15:12:25.177Z,24.20
2023-03-03T15:15:02.271Z,24.37
2023-03-03T15:17:54.932Z,25.47
2023-03-03T15:20:45.500Z,22.33
2023-03-03T15:23:24.370Z,21.73
2023-03-03T15:26:19.176Z,25.20
2023-03-03T15:32:23.741Z,25.30
2023-03-03T15:35:23.168Z,23.57
2023-03-03T15:40:36.698Z,21.70
2023-03-03T15:43:15.458Z,22.23
2023-03-03T15:46:06.623Z,24.23
2023-03-03T15:48:49.317Z,24.87
2023-03-03T15:51:44.136Z,24.13
2023-03-03T15:54:51.272Z,27.27
2023-03-03T15:57:29.525Z,27.83
2023-03-03T16:00:03.145Z,25.27
2023-03-03T16:02:47.081Z,25.97
2023-03-03T16:05:31.152Z,23.63
2023-03-03T16:08:09.484Z,30.73
2023-03-03T16:11:04.269Z,24.47
2023-03-03T16:13:59.463Z,24.33
2023-03-03T16:16:49.018Z,25.17
2023-03-03T16:19:18.542Z,25.27
2023-03-03T16:21:54.074Z,25.07
2023-03-03T16:24:58.224Z,25.27
2023-03-03T16:27:36.789Z,24.90
2023-03-03T16:30:32.538Z,27.10
2023-03-03T16:33:21.436Z,31.30
2023-03-03T16:36:08.234Z,29.40
2023-03-03T16:38:45.559Z,30.73
2023-03-03T16:41:21.323Z,26.90
2023-03-03T16:46:50.595Z,26.47
2023-03-03T16:49:59.195Z,28.57
2023-03-03T16:52:36.232Z,28.67
2023-03-03T16:55:15.423Z,26.77
2023-03-03T16:57:51.604Z,28.60
2023-03-03T17:00:21.745Z,26.17
2023-03-03T17:03:00.390Z,29.70
2023-03-03T17:05:53.027Z,29.63
2023-03-03T17:08:31.663Z,27.90
2023-03-03T17:11:12.778Z,24.47
2023-03-03T17:13:42.188Z,74.20
2023-03-03T17:16:49.836Z,50.37
2023-03-03T17:19:49.237Z,26.50
2023-03-03T17:22:24.564Z,25.30
2023-03-03T17:25:18.541Z,29.10
2023-03-03T17:28:09.317Z,25.17
2023-03-03T17:30:52.413Z,25.67
2023-03-03T17:33:33.708Z,82.43
2023-03-03T17:36:16.301Z,97.27
2023-03-03T17:39:14.408Z,40.17
2023-03-03T17:41:46.311Z,32.63
2023-03-03T17:44:29.860Z,27.03
2023-03-03T17:47:04.522Z,28.33
2023-03-03T17:49:45.926Z,30.30
2023-03-03T17:52:23.013Z,32.20
2023-03-03T17:54:59.192Z,29.23
2023-03-03T17:57:52.652Z,27.63
2023-03-03T18:00:39.361Z,31.00
2023-03-03T18:03:36.916Z,26.90
2023-03-03T18:09:24.981Z,26.87
2023-03-03T18:12:11.117Z,31.80
2023-03-03T18:14:58.871Z,29.23
2023-03-03T18:18:09.804Z,29.13
2023-03-03T18:20:51.117Z,40.57
2023-03-03T18:23:35.583Z,47.37
2023-03-03T18:26:04.921Z,51.40
2023-03-03T18:28:45.722Z,55.73
2023-03-03T18:31:43.921Z,51.00
2023-03-03T18:34:25.556Z,53.13
2023-03-03T18:37:17.899Z,47.63
2023-03-03T18:42:26.056Z,41.63
2023-03-03T18:44:52.602Z,44.43
2023-03-03T18:47:21.132Z,34.60
2023-03-03T18:50:05.559Z,45.17
2023-03-03T18:52:34.949Z,49.33
2023-03-03T18:55:21.659Z,45.10
2023-03-03T18:58:36.425Z,39.03
2023-03-03T19:01:14.066Z,42.47
2023-03-03T19:03:45.063Z,42.63
2023-03-03T19:06:11.659Z,45.20
2023-03-03T19:11:48.940Z,39.93
2023-03-03T19:14:25.901Z,38.47
2023-03-03T19:16:54.316Z,38.70
2023-03-03T19:19:25.172Z,37.30
2023-03-03T19:22:31.044Z,37.73
2023-03-03T19:25:09.551Z,41.27
2023-03-03T19:27:43.333Z,39.00
2023-03-03T19:30:55.814Z,36.20
2023-03-03T19:33:50.217Z,36.93
2023-03-03T19:36:48.877Z,34.87
2023-03-03T19:39:39.335Z,37.50
2023-03-03T19:42:40.067Z,31.17
2023-03-03T19:45:22.086Z,37.10
2023-03-03T19:47:55.763Z,36.20
2023-03-03T19:50:45.066Z,35.57
2023-03-03T19:53:42.168Z,38.73
2023-03-03T19:56:20.052Z,31.13
2023-03-03T19:58:55.734Z,37.27
2023-03-03T20:01:48.134Z,36.73
2023-03-03T20:04:45.453Z,50.33
2023-03-03T20:10:15.790Z,33.03
2023-03-03T20:13:13.740Z,35.70
2023-03-03T20:15:51.980Z,37.53
2023-03-03T20:18:36.684Z,39.47
2023-03-03T20:21:21.544Z,33.60
2023-03-03T20:24:10.919Z,33.10
2023-03-03T20:26:49.656Z,33.90
2023-03-03T20:29:42.238Z,34.07
2023-03-03T20:32:23.793Z,34.33
2023-03-03T20:34:59.805Z,33.73
2023-03-03T20:37:54.306Z,29.07
2023-03-03T20:40:45.507Z,32.33
2023-03-03T20:43:27.038Z,32.20
2023-03-03T20:46:10.860Z,31.23
2023-03-03T20:48:58.059Z,38.80
2023-03-03T20:51:36.572Z,34.00
2023-03-03T20:57:11.182Z,35.00
2023-03-03T20:59:55.680Z,32.70
2023-03-03T21:02:54.002Z,28.57
2023-03-03T21:05:22.836Z,34.67
2023-03-03T21:07:52.740Z,32.57
2023-03-03T21:10:24.454Z,34.43
2023-03-03T21:12:53.543Z,33.47
2023-03-03T21:15:38.122Z,31.47
2023-03-03T21:18:21.393Z,33.30
2023-03-03T21:20:47.961Z,29.03
2023-03-03T21:23:14.579Z,32.37
2023-03-03T21:25:41.242Z,32.97
2023-03-03T21:28:29.552Z,36.73
2023-03-03T21:31:02.107Z,33.80
2023-03-03T21:33:56.023Z,32.40
2023-03-03T21:36:42.801Z,34.27
2023-03-03T21:39:39.929Z,33.33
2023-03-03T21:42:09.326Z,34.13
2023-03-03T21:44:44.640Z,37.83
2023-03-03T21:47:14.983Z,34.53
2023-03-03T21:49:43.540Z,33.67
2023-03-03T21:52:11.239Z,32.53
2023-03-03T21:54:38.078Z,32.47
2023-03-03T21:57:04.928Z,30.07
2023-03-03T21:59:31.516Z,34.77
2023-03-03T22:01:58.061Z,31.73
2023-03-03T22:04:24.792Z,31.73
2023-03-03T22:06:52.885Z,35.77
2023-03-03T22:09:19.780Z,33.43
2023-03-03T22:11:46.578Z,31.60
2023-03-03T22:14:13.213Z,34.47
2023-03-03T22:16:40.068Z,33.13
2023-03-03T22:19:09.284Z,32.93
2023-03-03T22:21:36.954Z,39.77
2023-03-03T22:24:04.099Z,33.67
2023-03-03T22:26:30.862Z,34.03
2023-03-03T22:28:57.458Z,35.70
2023-03-03T22:31:24.102Z,35.97
2023-03-03T22:33:51.126Z,33.83
2023-03-03T22:36:19.132Z,37.53
2023-03-03T22:38:46.872Z,36.07
2023-03-03T22:41:13.998Z,37.27
2023-03-03T22:43:41.993Z,37.03
2023-03-03T22:46:09.701Z,35.57
2023-03-03T22:48:36.858Z,51.43
2023-03-03T22:51:04.363Z,60.77
2023-03-03T22:53:31.579Z,36.07
2023-03-03T22:58:29.626Z,33.70
2023-03-03T23:03:27.727Z,32.07
2023-03-03T23:05:54.378Z,32.47
2023-03-03T23:08:21.369Z,31.40
2023-03-03T23:10:48.804Z,29.87
2023-03-03T23:15:49.813Z,34.10
2023-03-03T23:18:16.388Z,32.93
2023-03-03T23:20:46.070Z,28.87
2023-03-03T23:23:12.856Z,31.53
2023-03-03T23:25:39.497Z,32.63
2023-03-03T23:28:06.379Z,28.63
2023-03-03T23:33:11.292Z,32.07
2023-03-03T23:35:37.974Z,29.63
2023-03-03T23:38:04.637Z,28.83
2023-03-03T23:40:31.231Z,31.20
2023-03-03T23:42:57.778Z,29.37
2023-03-03T23:45:24.444Z,31.27
2023-03-03T23:47:50.956Z,31.33
2023-03-03T23:50:17.600Z,29.93
2023-03-03T23:52:44.147Z,33.00
2023-03-03T23:55:11.127Z,31.90
2023-03-03T23:57:37.735Z,29.50
